sensor_id;sensor_type;location;lat;lon;timestamp;P1;durP1;ratioP1;P2;durP2;ratioP2
15516;SDS011;7860;52.030;5.572;2023-02-15T00:03:52;31.92;;;23.32;;
15516;SDS011;7860;52.030;5.572;2023-02-15T00:04:52;30.98;;;22.58;;
15516;SDS011;7860;52.030;5.572;2023-02-15T00:05:56;31.53;;;22.57;;
15516;SDS011;7860;52.030;5.572;2023-02-15T00:06:54;32.70;;;23.42;;
15516;SDS011;7860;52.030;5.572;2023-02-15T00:07:54;33.41;;;23.64;;
15516;SDS011;7860;52.030;5.572;2023-02-15T00:08:55;33.10;;;23.66;;
15516;SDS011;7860;52.030;5.572;2023-02-15T00:09:56;30.82;;;21.79;;
15516;SDS011;7860;52.030;5.572;2023-02-15T00:11:03;31.54;;;22.42;;
15516;SDS011;7860;52.030;5.572;2023-02-15T00:11:57;36.28;;;24.00;;
15516;SDS011;7860;52.030;5.572;2023-02-15T00:12:59;35.07;;;24.47;;
15516;SDS011;7860;52.030;5.572;2023-02-15T00:13:59;67.95;;;42.55;;
15516;SDS011;7860;52.030;5.572;2023-02-15T00:14:59;67.69;;;42.17;;
15516;SDS011;7860;52.030;5.572;2023-02-15T00:16:00;69.52;;;43.30;;
15516;SDS011;7860;52.030;5.572;2023-02-15T00:17:01;54.06;;;37.24;;
15516;SDS011;7860;52.030;5.572;2023-02-15T00:18:01;48.88;;;33.79;;
15516;SDS011;7860;52.030;5.572;2023-02-15T00:19:02;39.22;;;27.84;;
15516;SDS011;7860;52.030;5.572;2023-02-15T00:20:03;37.41;;;26.48;;
15516;SDS011;7860;52.030;5.572;2023-02-15T00:21:03;33.21;;;23.83;;
15516;SDS011;7860;52.030;5.572;2023-02-15T00:22:03;29.22;;;21.75;;
15516;SDS011;7860;52.030;5.572;2023-02-15T00:23:04;35.57;;;25.50;;
15516;SDS011;7860;52.030;5.572;2023-02-15T00:24:07;38.78;;;28.52;;
15516;SDS011;7860;52.030;5.572;2023-02-15T00:25:05;45.18;;;32.19;;
15516;SDS011;7860;52.030;5.572;2023-02-15T00:26:05;46.49;;;33.45;;
15516;SDS011;7860;52.030;5.572;2023-02-15T00:27:06;44.59;;;33.37;;
15516;SDS011;7860;52.030;5.572;2023-02-15T00:28:07;40.22;;;30.13;;
15516;SDS011;7860;52.030;5.572;2023-02-15T00:29:09;32.47;;;25.26;;
15516;SDS011;7860;52.030;5.572;2023-02-15T00:30:09;30.51;;;23.18;;
15516;SDS011;7860;52.030;5.572;2023-02-15T00:31:10;27.78;;;21.00;;
15516;SDS011;7860;52.030;5.572;2023-02-15T00:32:10;24.73;;;19.11;;
15516;SDS011;7860;52.030;5.572;2023-02-15T00:33:10;26.70;;;20.03;;
15516;SDS011;7860;52.030;5.572;2023-02-15T00:34:11;24.46;;;19.02;;
15516;SDS011;7860;52.030;5.572;2023-02-15T00:35:12;25.19;;;19.32;;
15516;SDS011;7860;52.030;5.572;2023-02-15T00:36:13;24.24;;;18.72;;
15516;SDS011;7860;52.030;5.572;2023-02-15T00:37:14;23.68;;;18.51;;
15516;SDS011;7860;52.030;5.572;2023-02-15T00:38:14;24.86;;;18.58;;
15516;SDS011;7860;52.030;5.572;2023-02-15T00:39:15;24.04;;;18.16;;
15516;SDS011;7860;52.030;5.572;2023-02-15T00:40:15;22.92;;;17.72;;
15516;SDS011;7860;52.030;5.572;2023-02-15T00:41:15;22.33;;;17.06;;
15516;SDS011;7860;52.030;5.572;2023-02-15T00:42:15;23.48;;;17.87;;
15516;SDS011;7860;52.030;5.572;2023-02-15T00:43:16;22.49;;;17.86;;
15516;SDS011;7860;52.030;5.572;2023-02-15T00:44:17;22.58;;;17.62;;
15516;SDS011;7860;52.030;5.572;2023-02-15T00:45:18;22.53;;;18.42;;
15516;SDS011;7860;52.030;5.572;2023-02-15T00:46:18;22.18;;;18.52;;
15516;SDS011;7860;52.030;5.572;2023-02-15T00:47:19;22.09;;;18.38;;
15516;SDS011;7860;52.030;5.572;2023-02-15T00:48:19;21.45;;;18.15;;
15516;SDS011;7860;52.030;5.572;2023-02-15T00:49:20;21.88;;;18.41;;
15516;SDS011;7860;52.030;5.572;2023-02-15T00:50:21;21.12;;;18.03;;
15516;SDS011;7860;52.030;5.572;2023-02-15T00:51:21;20.97;;;17.89;;
15516;SDS011;7860;52.030;5.572;2023-02-15T00:52:22;20.51;;;18.11;;
15516;SDS011;7860;52.030;5.572;2023-02-15T00:53:23;21.04;;;18.23;;
15516;SDS011;7860;52.030;5.572;2023-02-15T00:54:23;20.37;;;18.18;;
15516;SDS011;7860;52.030;5.572;2023-02-15T00:55:24;22.13;;;18.29;;
15516;SDS011;7860;52.030;5.572;2023-02-15T00:56:24;20.42;;;17.84;;
15516;SDS011;7860;52.030;5.572;2023-02-15T00:57:25;21.74;;;18.38;;
15516;SDS011;7860;52.030;5.572;2023-02-15T00:58:25;21.36;;;18.36;;
15516;SDS011;7860;52.030;5.572;2023-02-15T00:59:26;21.31;;;17.64;;
15516;SDS011;7860;52.030;5.572;2023-02-15T01:00:26;22.53;;;19.14;;
15516;SDS011;7860;52.030;5.572;2023-02-15T01:01:27;20.78;;;18.35;;
15516;SDS011;7860;52.030;5.572;2023-02-15T01:02:27;22.45;;;19.19;;
15516;SDS011;7860;52.030;5.572;2023-02-15T01:03:28;22.68;;;19.92;;
15516;SDS011;7860;52.030;5.572;2023-02-15T01:04:28;21.97;;;18.68;;
15516;SDS011;7860;52.030;5.572;2023-02-15T01:05:29;23.11;;;19.48;;
15516;SDS011;7860;52.030;5.572;2023-02-15T01:06:29;22.85;;;19.20;;
15516;SDS011;7860;52.030;5.572;2023-02-15T01:07:30;22.68;;;18.88;;
15516;SDS011;7860;52.030;5.572;2023-02-15T01:08:31;23.28;;;19.16;;
15516;SDS011;7860;52.030;5.572;2023-02-15T01:09:31;23.89;;;20.29;;
15516;SDS011;7860;52.030;5.572;2023-02-15T01:10:33;23.13;;;19.29;;
15516;SDS011;7860;52.030;5.572;2023-02-15T01:11:33;23.57;;;20.29;;
15516;SDS011;7860;52.030;5.572;2023-02-15T01:12:33;23.32;;;19.66;;
15516;SDS011;7860;52.030;5.572;2023-02-15T01:13:34;23.41;;;19.87;;
15516;SDS011;7860;52.030;5.572;2023-02-15T01:14:34;24.27;;;19.05;;
15516;SDS011;7860;52.030;5.572;2023-02-15T01:15:35;23.82;;;19.47;;
15516;SDS011;7860;52.030;5.572;2023-02-15T01:16:35;22.77;;;19.41;;
15516;SDS011;7860;52.030;5.572;2023-02-15T01:17:36;22.93;;;19.04;;
15516;SDS011;7860;52.030;5.572;2023-02-15T01:18:36;22.52;;;19.28;;
15516;SDS011;7860;52.030;5.572;2023-02-15T01:19:37;25.12;;;20.85;;
15516;SDS011;7860;52.030;5.572;2023-02-15T01:20:38;24.36;;;20.23;;
15516;SDS011;7860;52.030;5.572;2023-02-15T01:21:38;24.31;;;19.95;;
15516;SDS011;7860;52.030;5.572;2023-02-15T01:22:38;22.25;;;19.46;;
15516;SDS011;7860;52.030;5.572;2023-02-15T01:23:39;25.42;;;21.20;;
15516;SDS011;7860;52.030;5.572;2023-02-15T01:24:40;25.15;;;20.50;;
15516;SDS011;7860;52.030;5.572;2023-02-15T01:25:41;24.88;;;20.89;;
15516;SDS011;7860;52.030;5.572;2023-02-15T01:26:41;25.45;;;20.30;;
15516;SDS011;7860;52.030;5.572;2023-02-15T01:27:42;25.53;;;21.93;;
15516;SDS011;7860;52.030;5.572;2023-02-15T01:28:42;26.59;;;21.65;;
15516;SDS011;7860;52.030;5.572;2023-02-15T01:29:43;25.02;;;20.66;;
15516;SDS011;7860;52.030;5.572;2023-02-15T01:30:44;24.70;;;20.88;;
15516;SDS011;7860;52.030;5.572;2023-02-15T01:31:44;27.10;;;21.96;;
15516;SDS011;7860;52.030;5.572;2023-02-15T01:32:45;25.78;;;21.68;;
15516;SDS011;7860;52.030;5.572;2023-02-15T01:33:45;25.71;;;21.20;;
15516;SDS011;7860;52.030;5.572;2023-02-15T01:34:45;25.12;;;20.58;;
15516;SDS011;7860;52.030;5.572;2023-02-15T01:35:45;25.52;;;21.94;;
15516;SDS011;7860;52.030;5.572;2023-02-15T01:36:46;26.71;;;21.60;;
15516;SDS011;7860;52.030;5.572;2023-02-15T01:37:47;26.53;;;22.05;;
15516;SDS011;7860;52.030;5.572;2023-02-15T01:38:47;24.66;;;20.30;;
15516;SDS011;7860;52.030;5.572;2023-02-15T01:39:48;26.81;;;21.99;;
15516;SDS011;7860;52.030;5.572;2023-02-15T01:40:50;26.72;;;21.45;;
15516;SDS011;7860;52.030;5.572;2023-02-15T01:41:49;25.69;;;20.86;;
15516;SDS011;7860;52.030;5.572;2023-02-15T01:42:50;26.60;;;21.26;;
15516;SDS011;7860;52.030;5.572;2023-02-15T01:43:52;26.65;;;22.12;;
15516;SDS011;7860;52.030;5.572;2023-02-15T01:44:54;26.72;;;22.26;;
15516;SDS011;7860;52.030;5.572;2023-02-15T01:45:52;28.35;;;22.99;;
15516;SDS011;7860;52.030;5.572;2023-02-15T01:46:52;26.96;;;21.39;;
15516;SDS011;7860;52.030;5.572;2023-02-15T01:47:54;28.78;;;23.46;;
15516;SDS011;7860;52.030;5.572;2023-02-15T01:48:55;28.64;;;22.88;;
15516;SDS011;7860;52.030;5.572;2023-02-15T01:49:57;27.95;;;23.63;;
15516;SDS011;7860;52.030;5.572;2023-02-15T01:50:55;28.55;;;22.10;;
15516;SDS011;7860;52.030;5.572;2023-02-15T01:51:55;26.98;;;22.42;;
15516;SDS011;7860;52.030;5.572;2023-02-15T01:52:57;28.43;;;22.46;;
15516;SDS011;7860;52.030;5.572;2023-02-15T01:53:57;27.12;;;21.56;;
15516;SDS011;7860;52.030;5.572;2023-02-15T01:54:57;29.19;;;23.36;;
15516;SDS011;7860;52.030;5.572;2023-02-15T01:55:59;28.39;;;23.04;;
15516;SDS011;7860;52.030;5.572;2023-02-15T01:56:59;27.83;;;22.97;;
15516;SDS011;7860;52.030;5.572;2023-02-15T01:57:59;26.53;;;22.01;;
15516;SDS011;7860;52.030;5.572;2023-02-15T01:58:59;25.62;;;21.19;;
15516;SDS011;7860;52.030;5.572;2023-02-15T02:00:00;27.80;;;22.19;;
15516;SDS011;7860;52.030;5.572;2023-02-15T02:01:00;27.17;;;21.64;;
15516;SDS011;7860;52.030;5.572;2023-02-15T02:02:01;26.77;;;20.25;;
15516;SDS011;7860;52.030;5.572;2023-02-15T02:03:02;26.91;;;20.98;;
15516;SDS011;7860;52.030;5.572;2023-02-15T02:04:03;27.63;;;21.12;;
15516;SDS011;7860;52.030;5.572;2023-02-15T02:05:03;27.37;;;20.91;;
15516;SDS011;7860;52.030;5.572;2023-02-15T02:06:03;27.44;;;21.81;;
15516;SDS011;7860;52.030;5.572;2023-02-15T02:07:03;26.79;;;20.04;;
15516;SDS011;7860;52.030;5.572;2023-02-15T02:08:04;28.22;;;22.37;;
15516;SDS011;7860;52.030;5.572;2023-02-15T02:09:04;25.66;;;19.92;;
15516;SDS011;7860;52.030;5.572;2023-02-15T02:10:07;27.87;;;21.96;;
15516;SDS011;7860;52.030;5.572;2023-02-15T02:11:09;26.80;;;20.74;;
15516;SDS011;7860;52.030;5.572;2023-02-15T02:12:06;26.68;;;19.88;;
15516;SDS011;7860;52.030;5.572;2023-02-15T02:13:07;26.68;;;20.54;;
15516;SDS011;7860;52.030;5.572;2023-02-15T02:14:07;26.74;;;20.59;;
15516;SDS011;7860;52.030;5.572;2023-02-15T02:15:08;29.56;;;21.99;;
15516;SDS011;7860;52.030;5.572;2023-02-15T02:16:09;28.27;;;22.85;;
15516;SDS011;7860;52.030;5.572;2023-02-15T02:17:10;28.28;;;22.77;;
15516;SDS011;7860;52.030;5.572;2023-02-15T02:18:14;27.50;;;22.30;;
15516;SDS011;7860;52.030;5.572;2023-02-15T02:19:17;27.91;;;22.73;;
15516;SDS011;7860;52.030;5.572;2023-02-15T02:20:16;28.75;;;23.58;;
15516;SDS011;7860;52.030;5.572;2023-02-15T02:21:20;28.68;;;23.66;;
15516;SDS011;7860;52.030;5.572;2023-02-15T02:22:16;27.61;;;22.39;;
15516;SDS011;7860;52.030;5.572;2023-02-15T02:23:15;27.57;;;22.75;;
15516;SDS011;7860;52.030;5.572;2023-02-15T02:24:18;28.70;;;23.31;;
15516;SDS011;7860;52.030;5.572;2023-02-15T02:25:20;29.15;;;22.26;;
15516;SDS011;7860;52.030;5.572;2023-02-15T02:27:18;27.79;;;21.77;;
15516;SDS011;7860;52.030;5.572;2023-02-15T02:28:21;28.46;;;22.83;;
15516;SDS011;7860;52.030;5.572;2023-02-15T02:29:28;29.09;;;23.17;;
15516;SDS011;7860;52.030;5.572;2023-02-15T02:31:22;27.78;;;23.03;;
15516;SDS011;7860;52.030;5.572;2023-02-15T02:32:22;30.78;;;24.38;;
15516;SDS011;7860;52.030;5.572;2023-02-15T02:33:20;28.84;;;22.92;;
15516;SDS011;7860;52.030;5.572;2023-02-15T02:34:19;29.06;;;24.07;;
15516;SDS011;7860;52.030;5.572;2023-02-15T02:35:21;33.19;;;25.40;;
15516;SDS011;7860;52.030;5.572;2023-02-15T02:36:21;31.43;;;24.58;;
15516;SDS011;7860;52.030;5.572;2023-02-15T02:37:22;30.14;;;23.53;;
15516;SDS011;7860;52.030;5.572;2023-02-15T02:38:21;31.06;;;22.95;;
15516;SDS011;7860;52.030;5.572;2023-02-15T02:39:23;31.09;;;24.32;;
15516;SDS011;7860;52.030;5.572;2023-02-15T02:40:25;35.28;;;26.16;;
15516;SDS011;7860;52.030;5.572;2023-02-15T02:41:24;34.46;;;26.44;;
15516;SDS011;7860;52.030;5.572;2023-02-15T02:42:25;31.03;;;23.89;;
15516;SDS011;7860;52.030;5.572;2023-02-15T02:43:25;36.92;;;27.20;;
15516;SDS011;7860;52.030;5.572;2023-02-15T02:44:25;35.10;;;26.22;;
15516;SDS011;7860;52.030;5.572;2023-02-15T02:45:25;38.40;;;26.89;;
15516;SDS011;7860;52.030;5.572;2023-02-15T02:46:26;38.95;;;27.89;;
15516;SDS011;7860;52.030;5.572;2023-02-15T02:47:26;38.63;;;27.35;;
15516;SDS011;7860;52.030;5.572;2023-02-15T02:48:27;40.42;;;28.09;;
15516;SDS011;7860;52.030;5.572;2023-02-15T02:49:29;34.04;;;24.73;;
15516;SDS011;7860;52.030;5.572;2023-02-15T02:50:28;41.74;;;29.61;;
15516;SDS011;7860;52.030;5.572;2023-02-15T02:51:29;40.35;;;27.96;;
15516;SDS011;7860;52.030;5.572;2023-02-15T02:52:34;42.44;;;29.72;;
15516;SDS011;7860;52.030;5.572;2023-02-15T02:53:30;45.86;;;28.67;;
15516;SDS011;7860;52.030;5.572;2023-02-15T02:54:30;40.40;;;27.36;;
15516;SDS011;7860;52.030;5.572;2023-02-15T02:55:33;45.11;;;28.19;;
15516;SDS011;7860;52.030;5.572;2023-02-15T02:56:33;36.89;;;25.16;;
15516;SDS011;7860;52.030;5.572;2023-02-15T02:57:32;42.74;;;28.16;;
15516;SDS011;7860;52.030;5.572;2023-02-15T02:58:33;42.22;;;27.47;;
15516;SDS011;7860;52.030;5.572;2023-02-15T02:59:34;40.23;;;26.93;;
15516;SDS011;7860;52.030;5.572;2023-02-15T03:00:34;44.04;;;27.91;;
15516;SDS011;7860;52.030;5.572;2023-02-15T03:01:35;40.95;;;26.56;;
15516;SDS011;7860;52.030;5.572;2023-02-15T03:02:36;43.66;;;28.67;;
15516;SDS011;7860;52.030;5.572;2023-02-15T03:03:36;39.97;;;25.81;;
15516;SDS011;7860;52.030;5.572;2023-02-15T03:04:36;39.04;;;25.75;;
15516;SDS011;7860;52.030;5.572;2023-02-15T03:05:37;46.09;;;29.30;;
15516;SDS011;7860;52.030;5.572;2023-02-15T03:06:38;43.51;;;27.86;;
15516;SDS011;7860;52.030;5.572;2023-02-15T03:07:38;42.89;;;28.02;;
15516;SDS011;7860;52.030;5.572;2023-02-15T03:08:39;43.32;;;27.78;;
15516;SDS011;7860;52.030;5.572;2023-02-15T03:09:39;44.68;;;27.79;;
15516;SDS011;7860;52.030;5.572;2023-02-15T03:10:39;42.62;;;26.44;;
15516;SDS011;7860;52.030;5.572;2023-02-15T03:11:40;36.86;;;23.84;;
15516;SDS011;7860;52.030;5.572;2023-02-15T03:12:39;41.81;;;26.82;;
15516;SDS011;7860;52.030;5.572;2023-02-15T03:13:40;37.81;;;25.97;;
15516;SDS011;7860;52.030;5.572;2023-02-15T03:14:41;38.07;;;25.37;;
15516;SDS011;7860;52.030;5.572;2023-02-15T03:15:41;44.11;;;28.78;;
15516;SDS011;7860;52.030;5.572;2023-02-15T03:16:42;44.70;;;29.03;;
15516;SDS011;7860;52.030;5.572;2023-02-15T03:17:43;45.20;;;29.95;;
15516;SDS011;7860;52.030;5.572;2023-02-15T03:18:44;39.96;;;27.13;;
15516;SDS011;7860;52.030;5.572;2023-02-15T03:19:44;46.91;;;31.02;;
15516;SDS011;7860;52.030;5.572;2023-02-15T03:20:45;42.00;;;27.32;;
15516;SDS011;7860;52.030;5.572;2023-02-15T03:21:45;44.87;;;29.97;;
15516;SDS011;7860;52.030;5.572;2023-02-15T03:22:47;43.64;;;29.03;;
15516;SDS011;7860;52.030;5.572;2023-02-15T03:23:48;47.13;;;30.97;;
15516;SDS011;7860;52.030;5.572;2023-02-15T03:24:48;46.42;;;30.04;;
15516;SDS011;7860;52.030;5.572;2023-02-15T03:25:48;41.86;;;27.89;;
15516;SDS011;7860;52.030;5.572;2023-02-15T03:26:48;36.51;;;24.94;;
15516;SDS011;7860;52.030;5.572;2023-02-15T03:27:49;43.26;;;27.88;;
15516;SDS011;7860;52.030;5.572;2023-02-15T03:28:49;51.39;;;32.28;;
15516;SDS011;7860;52.030;5.572;2023-02-15T03:29:51;47.90;;;31.31;;
15516;SDS011;7860;52.030;5.572;2023-02-15T03:30:51;49.70;;;30.40;;
15516;SDS011;7860;52.030;5.572;2023-02-15T03:31:53;50.51;;;30.72;;
15516;SDS011;7860;52.030;5.572;2023-02-15T03:32:51;49.43;;;30.80;;
15516;SDS011;7860;52.030;5.572;2023-02-15T03:33:53;49.20;;;30.30;;
15516;SDS011;7860;52.030;5.572;2023-02-15T03:34:52;50.87;;;31.11;;
15516;SDS011;7860;52.030;5.572;2023-02-15T03:35:54;50.38;;;30.72;;
15516;SDS011;7860;52.030;5.572;2023-02-15T03:36:56;53.75;;;31.89;;
15516;SDS011;7860;52.030;5.572;2023-02-15T03:37:55;48.95;;;29.57;;
15516;SDS011;7860;52.030;5.572;2023-02-15T03:38:56;52.51;;;29.74;;
15516;SDS011;7860;52.030;5.572;2023-02-15T03:39:55;39.12;;;25.52;;
15516;SDS011;7860;52.030;5.572;2023-02-15T03:40:56;40.93;;;26.49;;
15516;SDS011;7860;52.030;5.572;2023-02-15T03:41:57;42.41;;;25.96;;
15516;SDS011;7860;52.030;5.572;2023-02-15T03:42:58;40.65;;;25.99;;
15516;SDS011;7860;52.030;5.572;2023-02-15T03:43:58;42.07;;;26.65;;
15516;SDS011;7860;52.030;5.572;2023-02-15T03:44:59;37.94;;;25.40;;
15516;SDS011;7860;52.030;5.572;2023-02-15T03:46:00;47.02;;;29.44;;
15516;SDS011;7860;52.030;5.572;2023-02-15T03:47:00;49.27;;;28.98;;
15516;SDS011;7860;52.030;5.572;2023-02-15T03:48:00;35.81;;;23.04;;
15516;SDS011;7860;52.030;5.572;2023-02-15T03:49:01;44.11;;;26.22;;
15516;SDS011;7860;52.030;5.572;2023-02-15T03:50:02;38.83;;;24.67;;
15516;SDS011;7860;52.030;5.572;2023-02-15T03:51:02;36.62;;;24.37;;
15516;SDS011;7860;52.030;5.572;2023-02-15T03:52:02;42.31;;;26.54;;
15516;SDS011;7860;52.030;5.572;2023-02-15T03:53:02;42.49;;;27.40;;
15516;SDS011;7860;52.030;5.572;2023-02-15T03:54:04;47.05;;;28.24;;
15516;SDS011;7860;52.030;5.572;2023-02-15T03:55:03;46.68;;;28.80;;
15516;SDS011;7860;52.030;5.572;2023-02-15T03:56:04;48.85;;;29.79;;
15516;SDS011;7860;52.030;5.572;2023-02-15T03:57:06;55.08;;;30.39;;
15516;SDS011;7860;52.030;5.572;2023-02-15T03:58:05;54.41;;;29.70;;
15516;SDS011;7860;52.030;5.572;2023-02-15T03:59:06;43.20;;;25.58;;
15516;SDS011;7860;52.030;5.572;2023-02-15T04:00:09;50.98;;;29.57;;
15516;SDS011;7860;52.030;5.572;2023-02-15T04:01:10;44.25;;;26.00;;
15516;SDS011;7860;52.030;5.572;2023-02-15T04:02:09;54.09;;;30.31;;
15516;SDS011;7860;52.030;5.572;2023-02-15T04:03:09;50.45;;;30.84;;
15516;SDS011;7860;52.030;5.572;2023-02-15T04:04:09;52.63;;;29.59;;
15516;SDS011;7860;52.030;5.572;2023-02-15T04:05:09;52.12;;;29.98;;
15516;SDS011;7860;52.030;5.572;2023-02-15T04:06:09;49.81;;;29.72;;
15516;SDS011;7860;52.030;5.572;2023-02-15T04:07:09;47.40;;;28.07;;
15516;SDS011;7860;52.030;5.572;2023-02-15T04:08:10;41.08;;;24.72;;
15516;SDS011;7860;52.030;5.572;2023-02-15T04:09:11;48.76;;;29.19;;
15516;SDS011;7860;52.030;5.572;2023-02-15T04:10:11;44.68;;;27.76;;
15516;SDS011;7860;52.030;5.572;2023-02-15T04:11:12;50.52;;;29.83;;
15516;SDS011;7860;52.030;5.572;2023-02-15T04:12:12;51.74;;;29.26;;
15516;SDS011;7860;52.030;5.572;2023-02-15T04:13:13;52.46;;;30.15;;
15516;SDS011;7860;52.030;5.572;2023-02-15T04:14:13;51.94;;;29.48;;
15516;SDS011;7860;52.030;5.572;2023-02-15T04:15:14;50.11;;;29.00;;
15516;SDS011;7860;52.030;5.572;2023-02-15T04:16:15;38.15;;;23.72;;
15516;SDS011;7860;52.030;5.572;2023-02-15T04:17:16;42.54;;;25.72;;
15516;SDS011;7860;52.030;5.572;2023-02-15T04:18:16;46.12;;;28.39;;
15516;SDS011;7860;52.030;5.572;2023-02-15T04:19:17;43.63;;;26.61;;
15516;SDS011;7860;52.030;5.572;2023-02-15T04:20:17;49.79;;;28.63;;
15516;SDS011;7860;52.030;5.572;2023-02-15T04:21:18;44.08;;;26.54;;
15516;SDS011;7860;52.030;5.572;2023-02-15T04:22:18;51.30;;;31.15;;
15516;SDS011;7860;52.030;5.572;2023-02-15T04:23:18;49.71;;;30.24;;
15516;SDS011;7860;52.030;5.572;2023-02-15T04:24:19;53.01;;;31.04;;
15516;SDS011;7860;52.030;5.572;2023-02-15T04:25:19;51.34;;;29.72;;
15516;SDS011;7860;52.030;5.572;2023-02-15T04:26:20;47.63;;;29.57;;
15516;SDS011;7860;52.030;5.572;2023-02-15T04:27:20;51.30;;;30.38;;
15516;SDS011;7860;52.030;5.572;2023-02-15T04:28:21;51.24;;;29.99;;
15516;SDS011;7860;52.030;5.572;2023-02-15T04:29:22;49.91;;;30.00;;
15516;SDS011;7860;52.030;5.572;2023-02-15T04:30:23;46.71;;;27.94;;
15516;SDS011;7860;52.030;5.572;2023-02-15T04:31:22;48.97;;;29.93;;
15516;SDS011;7860;52.030;5.572;2023-02-15T04:32:23;51.42;;;30.12;;
15516;SDS011;7860;52.030;5.572;2023-02-15T04:33:23;55.75;;;31.36;;
15516;SDS011;7860;52.030;5.572;2023-02-15T04:34:24;55.48;;;32.38;;
15516;SDS011;7860;52.030;5.572;2023-02-15T04:35:24;54.22;;;31.51;;
15516;SDS011;7860;52.030;5.572;2023-02-15T04:36:25;51.22;;;30.36;;
15516;SDS011;7860;52.030;5.572;2023-02-15T04:37:25;53.29;;;32.07;;
15516;SDS011;7860;52.030;5.572;2023-02-15T04:38:25;57.53;;;31.42;;
15516;SDS011;7860;52.030;5.572;2023-02-15T04:39:26;50.49;;;30.19;;
15516;SDS011;7860;52.030;5.572;2023-02-15T04:40:26;53.03;;;31.70;;
15516;SDS011;7860;52.030;5.572;2023-02-15T04:41:27;51.61;;;30.91;;
15516;SDS011;7860;52.030;5.572;2023-02-15T04:42:27;54.18;;;31.03;;
15516;SDS011;7860;52.030;5.572;2023-02-15T04:43:28;50.71;;;29.29;;
15516;SDS011;7860;52.030;5.572;2023-02-15T04:44:29;50.37;;;30.16;;
15516;SDS011;7860;52.030;5.572;2023-02-15T04:45:29;55.74;;;31.68;;
15516;SDS011;7860;52.030;5.572;2023-02-15T04:46:30;58.61;;;34.25;;
15516;SDS011;7860;52.030;5.572;2023-02-15T04:47:30;61.50;;;34.49;;
15516;SDS011;7860;52.030;5.572;2023-02-15T04:48:31;60.37;;;34.46;;
15516;SDS011;7860;52.030;5.572;2023-02-15T04:49:31;58.49;;;34.25;;
15516;SDS011;7860;52.030;5.572;2023-02-15T04:50:32;58.45;;;34.68;;
15516;SDS011;7860;52.030;5.572;2023-02-15T04:51:33;58.03;;;33.86;;
15516;SDS011;7860;52.030;5.572;2023-02-15T04:52:33;59.30;;;33.41;;
15516;SDS011;7860;52.030;5.572;2023-02-15T04:53:34;63.11;;;33.65;;
15516;SDS011;7860;52.030;5.572;2023-02-15T04:54:34;60.80;;;34.24;;
15516;SDS011;7860;52.030;5.572;2023-02-15T04:55:35;58.08;;;32.74;;
15516;SDS011;7860;52.030;5.572;2023-02-15T04:56:35;54.65;;;32.41;;
15516;SDS011;7860;52.030;5.572;2023-02-15T04:57:36;63.27;;;34.88;;
15516;SDS011;7860;52.030;5.572;2023-02-15T04:58:36;56.11;;;32.36;;
15516;SDS011;7860;52.030;5.572;2023-02-15T04:59:37;58.12;;;33.46;;
15516;SDS011;7860;52.030;5.572;2023-02-15T05:00:38;59.51;;;34.55;;
15516;SDS011;7860;52.030;5.572;2023-02-15T05:01:38;58.20;;;34.23;;
15516;SDS011;7860;52.030;5.572;2023-02-15T05:02:39;62.81;;;35.55;;
15516;SDS011;7860;52.030;5.572;2023-02-15T05:03:40;60.56;;;35.33;;
15516;SDS011;7860;52.030;5.572;2023-02-15T05:04:41;60.09;;;34.65;;
15516;SDS011;7860;52.030;5.572;2023-02-15T05:05:41;61.98;;;34.57;;
15516;SDS011;7860;52.030;5.572;2023-02-15T05:06:42;63.51;;;35.44;;
15516;SDS011;7860;52.030;5.572;2023-02-15T05:07:42;61.64;;;34.64;;
15516;SDS011;7860;52.030;5.572;2023-02-15T05:08:43;64.80;;;36.33;;
15516;SDS011;7860;52.030;5.572;2023-02-15T05:09:44;66.20;;;36.49;;
15516;SDS011;7860;52.030;5.572;2023-02-15T05:10:44;60.96;;;34.30;;
15516;SDS011;7860;52.030;5.572;2023-02-15T05:11:45;63.09;;;35.56;;
15516;SDS011;7860;52.030;5.572;2023-02-15T05:12:45;61.84;;;34.43;;
15516;SDS011;7860;52.030;5.572;2023-02-15T05:13:46;63.70;;;35.59;;
15516;SDS011;7860;52.030;5.572;2023-02-15T05:14:46;62.43;;;35.53;;
15516;SDS011;7860;52.030;5.572;2023-02-15T05:15:47;61.03;;;35.15;;
15516;SDS011;7860;52.030;5.572;2023-02-15T05:16:47;66.07;;;36.20;;
15516;SDS011;7860;52.030;5.572;2023-02-15T05:17:47;66.54;;;36.96;;
15516;SDS011;7860;52.030;5.572;2023-02-15T05:18:48;68.78;;;36.97;;
15516;SDS011;7860;52.030;5.572;2023-02-15T05:19:49;66.56;;;36.29;;
15516;SDS011;7860;52.030;5.572;2023-02-15T05:20:50;65.40;;;36.55;;
15516;SDS011;7860;52.030;5.572;2023-02-15T05:21:50;62.16;;;35.65;;
15516;SDS011;7860;52.030;5.572;2023-02-15T05:22:52;65.24;;;35.60;;
15516;SDS011;7860;52.030;5.572;2023-02-15T05:23:52;64.31;;;36.23;;
15516;SDS011;7860;52.030;5.572;2023-02-15T05:24:53;64.10;;;35.34;;
15516;SDS011;7860;52.030;5.572;2023-02-15T05:25:53;64.29;;;36.75;;
15516;SDS011;7860;52.030;5.572;2023-02-15T05:26:54;64.11;;;36.09;;
15516;SDS011;7860;52.030;5.572;2023-02-15T05:27:54;67.17;;;37.11;;
15516;SDS011;7860;52.030;5.572;2023-02-15T05:28:54;64.07;;;36.66;;
15516;SDS011;7860;52.030;5.572;2023-02-15T05:29:55;60.82;;;34.81;;
15516;SDS011;7860;52.030;5.572;2023-02-15T05:31:00;70.47;;;37.15;;
15516;SDS011;7860;52.030;5.572;2023-02-15T05:31:57;68.73;;;37.20;;
15516;SDS011;7860;52.030;5.572;2023-02-15T05:32:57;68.21;;;37.43;;
15516;SDS011;7860;52.030;5.572;2023-02-15T05:33:58;65.87;;;36.79;;
15516;SDS011;7860;52.030;5.572;2023-02-15T05:34:59;66.46;;;36.97;;
15516;SDS011;7860;52.030;5.572;2023-02-15T05:35:59;63.92;;;37.02;;
15516;SDS011;7860;52.030;5.572;2023-02-15T05:37:00;66.97;;;37.49;;
15516;SDS011;7860;52.030;5.572;2023-02-15T05:38:00;68.29;;;36.85;;
15516;SDS011;7860;52.030;5.572;2023-02-15T05:39:01;61.40;;;35.08;;
15516;SDS011;7860;52.030;5.572;2023-02-15T05:40:02;64.39;;;37.94;;
15516;SDS011;7860;52.030;5.572;2023-02-15T05:41:02;63.88;;;36.89;;
15516;SDS011;7860;52.030;5.572;2023-02-15T05:42:03;61.87;;;36.96;;
15516;SDS011;7860;52.030;5.572;2023-02-15T05:43:03;66.99;;;36.56;;
15516;SDS011;7860;52.030;5.572;2023-02-15T05:44:04;66.29;;;36.24;;
15516;SDS011;7860;52.030;5.572;2023-02-15T05:45:05;66.29;;;36.63;;
15516;SDS011;7860;52.030;5.572;2023-02-15T05:46:05;63.09;;;35.91;;
15516;SDS011;7860;52.030;5.572;2023-02-15T05:47:06;63.66;;;36.22;;
15516;SDS011;7860;52.030;5.572;2023-02-15T05:48:07;63.63;;;36.31;;
15516;SDS011;7860;52.030;5.572;2023-02-15T05:49:07;65.18;;;37.02;;
15516;SDS011;7860;52.030;5.572;2023-02-15T05:50:08;69.02;;;37.62;;
15516;SDS011;7860;52.030;5.572;2023-02-15T05:51:09;63.87;;;36.35;;
15516;SDS011;7860;52.030;5.572;2023-02-15T05:52:09;61.51;;;35.62;;
15516;SDS011;7860;52.030;5.572;2023-02-15T05:53:10;56.34;;;33.60;;
15516;SDS011;7860;52.030;5.572;2023-02-15T05:54:11;65.17;;;35.53;;
15516;SDS011;7860;52.030;5.572;2023-02-15T05:55:11;64.70;;;35.66;;
15516;SDS011;7860;52.030;5.572;2023-02-15T05:56:12;61.75;;;36.12;;
15516;SDS011;7860;52.030;5.572;2023-02-15T05:57:13;62.10;;;36.03;;
15516;SDS011;7860;52.030;5.572;2023-02-15T05:58:13;69.49;;;37.81;;
15516;SDS011;7860;52.030;5.572;2023-02-15T05:59:13;60.66;;;35.53;;
15516;SDS011;7860;52.030;5.572;2023-02-15T06:00:14;62.85;;;36.30;;
15516;SDS011;7860;52.030;5.572;2023-02-15T06:01:15;63.06;;;35.80;;
15516;SDS011;7860;52.030;5.572;2023-02-15T06:02:15;64.63;;;36.43;;
15516;SDS011;7860;52.030;5.572;2023-02-15T06:03:15;68.48;;;37.07;;
15516;SDS011;7860;52.030;5.572;2023-02-15T06:04:16;67.26;;;37.09;;